Time;durP1;ratioP1;P1;durP2;ratioP2;P2;SDS_P1;SDS_P2;PMS_P1;PMS_P2;Temp;Humidity;BMP_temperature;BMP_pressure;BME280_temperature;BME280_humidity;BME280_pressure;Samples;Min_cycle;Max_cycle;Signal;HPM_P1;HPM_P2
2024/03/04 00:01:00;;;;;;;;;;;;;;;19.15;43.21;98572.25;10292559;28;808;-72
2024/03/04 00:05:56;;;;;;;;;;;;;;;19.15;43.32;98576.66;10291835;28;1042;-72
2024/03/04 00:10:52;;;;;;;;;;;;;;;19.13;43.17;98579.41;10291217;28;1917;-72
2024/03/04 00:15:47;;;;;;;;;;;;;;;19.12;43.40;98585.63;10292025;28;838;-72
2024/03/04 00:20:43;;;;;;;;;;;;;;;19.11;43.34;98591.88;10291221;28;830;-72
2024/03/04 00:25:39;;;;;;;;;;;;;;;19.10;43.40;98591.97;10291623;28;871;-72
2024/03/04 00:30:35;;;;;;;;;;;;;;;19.09;43.21;98593.75;10291597;28;1902;-72
2024/03/04 00:35:31;;;;;;;;;;;;;;;19.09;43.19;98606.13;10290702;28;861;-72
2024/03/04 00:40:27;;;;;;;;;;;;;;;19.08;43.23;98620.31;10290336;28;784;-72
2024/03/04 00:45:23;;;;;;;;;;;;;;;19.07;43.33;98626.50;10290147;28;847;-72
2024/03/04 00:50:18;;;;;;;;;;;;;;;19.07;43.25;98629.16;10290620;28;1902;-72
2024/03/04 00:55:17;;;;;;;;;;;;;;;19.04;43.23;98638.97;10289477;28;945;-72
2024/03/04 01:00:14;;;;;;;;;;;;;;;19.03;43.19;98637.28;10289714;28;818;-72
2024/03/04 01:05:11;;;;;;;;;;;;;;;19.02;43.30;98645.28;10290774;28;1659;-72
2024/03/04 01:10:07;;;;;;;;;;;;;;;19.02;43.25;98651.44;10290120;28;1980;-73
2024/03/04 01:15:04;;;;;;;;;;;;;;;19.01;43.14;98660.31;10288633;28;983;-72
2024/03/04 01:20:00;;;;;;;;;;;;;;;19.00;43.16;98665.69;10289586;28;908;-72
2024/03/04 01:24:56;;;;;;;;;;;;;;;19.00;43.24;98663.06;10289593;28;946;-72
2024/03/04 01:29:52;;;;;;;;;;;;;;;18.98;43.15;98660.50;10288578;28;1897;-72
2024/03/04 01:34:48;;;;;;;;;;;;;;;18.96;43.20;98667.66;10289116;28;866;-72
2024/03/04 01:39:44;;;;;;;;;;;;;;;18.96;43.16;98677.41;10288113;28;1777;-72
2024/03/04 01:44:40;;;;;;;;;;;;;;;18.95;43.23;98679.19;10288611;28;902;-72
2024/03/04 01:49:36;;;;;;;;;;;;;;;18.94;43.11;98696.00;10287175;28;1897;-72
2024/03/04 01:54:32;;;;;;;;;;;;;;;18.93;43.13;98696.09;10288457;28;795;-73
2024/03/04 01:59:28;;;;;;;;;;;;;;;18.93;43.17;98711.94;10286356;28;930;-72
2024/03/04 02:04:24;;;;;;;;;;;;;;;18.90;43.02;98718.25;10287863;28;845;-72
2024/03/04 02:09:20;;;;;;;;;;;;;;;18.90;43.32;98726.19;10287298;28;1914;-72
2024/03/04 02:14:15;;;;;;;;;;;;;;;18.88;43.14;98730.69;10287456;28;858;-72
2024/03/04 02:19:11;;;;;;;;;;;;;;;18.88;43.12;98730.69;10287283;28;830;-72
2024/03/04 02:24:07;;;;;;;;;;;;;;;18.87;43.15;98744.84;10286998;28;932;-72
2024/03/04 02:29:04;;;;;;;;;;;;;;;18.86;43.28;98747.59;10286371;28;1968;-72
2024/03/04 02:34:00;;;;;;;;;;;;;;;18.85;43.20;98757.31;10286705;28;897;-72
2024/03/04 02:38:56;;;;;;;;;;;;;;;18.83;43.06;98760.03;10287153;28;897;-72
2024/03/04 02:43:52;;;;;;;;;;;;;;;18.83;43.28;98767.09;10285724;28;845;-72
2024/03/04 02:48:52;;;;;;;;;;;;;;;18.82;43.29;98776.81;10285513;28;1910;-72
2024/03/04 02:53:47;;;;;;;;;;;;;;;18.82;43.13;98786.53;10286317;28;925;-72
2024/03/04 02:58:43;;;;;;;;;;;;;;;18.81;43.20;98801.53;10285293;28;778;-72
2024/03/04 03:03:39;;;;;;;;;;;;;;;18.80;43.19;98805.09;10285164;28;786;-72
2024/03/04 03:08:35;;;;;;;;;;;;;;;18.79;43.22;98811.34;10284642;28;1987;-72
2024/03/04 03:13:32;;;;;;;;;;;;;;;18.78;43.29;98816.69;10284747;28;1107;-72
2024/03/04 03:18:28;;;;;;;;;;;;;;;18.77;43.26;98817.66;10284769;28;775;-72
2024/03/04 03:23:24;;;;;;;;;;;;;;;18.76;43.12;98822.09;10285200;28;859;-72
2024/03/04 03:28:20;;;;;;;;;;;;;;;18.75;43.24;98833.59;10285140;28;1903;-72
2024/03/04 03:33:16;;;;;;;;;;;;;;;18.75;43.11;98840.66;10285317;28;842;-72
2024/03/04 03:38:12;;;;;;;;;;;;;;;18.74;43.33;98844.22;10284929;28;921;-72
2024/03/04 03:43:07;;;;;;;;;;;;;;;18.72;43.16;98846.94;10284131;28;1004;-72
2024/03/04 03:48:04;;;;;;;;;;;;;;;18.72;43.29;98851.38;10284033;28;1890;-72
2024/03/04 03:53:00;;;;;;;;;;;;;;;18.71;43.23;98857.63;10284071;28;772;-72
2024/03/04 03:57:56;;;;;;;;;;;;;;;18.72;43.27;98859.31;10283929;28;970;-72
2024/03/04 04:02:52;;;;;;;;;;;;;;;18.70;43.08;98869.94;10284042;28;867;-72
2024/03/04 04:07:47;;;;;;;;;;;;;;;18.69;43.29;98865.63;10284273;28;1915;-72
2024/03/04 04:12:43;;;;;;;;;;;;;;;18.69;43.39;98870.06;10283672;28;887;-72
2024/03/04 04:17:39;;;;;;;;;;;;;;;18.67;43.37;98875.41;10283994;28;885;-72
2024/03/04 04:22:35;;;;;;;;;;;;;;;18.67;43.22;98882.50;10288851;28;807;-72
2024/03/04 04:27:31;;;;;;;;;;;;;;;18.66;43.17;98891.38;10291613;28;1895;-72
2024/03/04 04:32:27;;;;;;;;;;;;;;;18.65;43.39;98892.28;10290806;28;877;-72
2024/03/04 04:37:23;;;;;;;;;;;;;;;18.64;43.24;98895.88;10273986;28;893;-72
2024/03/04 04:42:19;;;;;;;;;;;;;;;18.62;43.39;98891.53;10291017;28;854;-72
2024/03/04 04:47:15;;;;;;;;;;;;;;;18.61;43.41;98900.41;10290255;28;1954;-72
2024/03/04 04:52:11;;;;;;;;;;;;;;;18.61;43.32;98900.41;10290160;28;865;-72
2024/03/04 04:57:06;;;;;;;;;;;;;;;18.64;43.26;98914.34;10289373;28;952;-72
2024/03/04 05:02:02;;;;;;;;;;;;;;;18.63;43.25;98918.78;10289049;28;961;-73
2024/03/04 05:06:58;;;;;;;;;;;;;;;18.64;43.41;98920.47;10289353;28;1981;-72
2024/03/04 05:11:54;;;;;;;;;;;;;;;18.64;43.46;98923.13;10289328;28;774;-73
2024/03/04 05:16:50;;;;;;;;;;;;;;;18.65;43.54;98930.06;10289157;28;1040;-75
2024/03/04 05:21:46;;;;;;;;;;;;;;;18.67;43.44;98935.28;10289581;28;872;-73
2024/03/04 05:26:43;;;;;;;;;;;;;;;18.69;43.33;98951.88;10288815;28;787;-72
2024/03/04 05:31:39;;;;;;;;;;;;;;;18.68;43.50;98951.03;10288342;28;1882;-75
2024/03/04 05:36:35;;;;;;;;;;;;;;;18.69;43.44;98959.81;10287818;28;957;-75
2024/03/04 05:41:31;;;;;;;;;;;;;;;18.68;43.42;98963.38;10288248;28;787;-75
2024/03/04 05:46:28;;;;;;;;;;;;;;;18.70;43.41;98972.03;10288123;28;870;-76
2024/03/04 05:51:23;;;;;;;;;;;;;;;18.69;43.45;98980.91;10287827;28;1961;-73
2024/03/04 05:56:19;;;;;;;;;;;;;;;18.71;43.29;98973.75;10287051;28;1079;-73
2024/03/04 06:01:15;;;;;;;;;;;;;;;18.71;43.38;98986.97;10287455;28;788;-73
2024/03/04 06:06:11;;;;;;;;;;;;;;;18.73;43.50;98979.78;10287553;28;1151;-74
2024/03/04 06:11:07;;;;;;;;;;;;;;;18.72;43.35;98992.13;10286412;28;1965;-75
2024/03/04 06:16:03;;;;;;;;;;;;;;;18.73;43.35;98991.22;10286768;28;770;-75
2024/03/04 06:20:59;;;;;;;;;;;;;;;18.73;43.30;98991.22;10286646;28;827;-74
2024/03/04 06:25:55;;;;;;;;;;;;;;;18.75;43.38;98993.78;10286478;28;820;-74
2024/03/04 06:30:51;;;;;;;;;;;;;;;18.75;43.47;99017.53;10286267;28;1898;-75
2024/03/04 06:35:47;;;;;;;;;;;;;;;18.75;43.38;99031.59;10286092;28;852;-75
2024/03/04 06:40:43;;;;;;;;;;;;;;;18.76;43.48;99040.38;10285963;28;952;-72
2024/03/04 06:45:39;;;;;;;;;;;;;;;18.76;43.33;99029.81;10285455;28;937;-80
2024/03/04 06:50:35;;;;;;;;;;;;;;;18.75;43.40;99036.88;10285027;28;1870;-72
2024/03/04 06:55:31;;;;;;;;;;;;;;;18.75;43.60;99039.50;10285451;28;807;-75
2024/03/04 07:00:27;;;;;;;;;;;;;;;18.76;43.34;99040.38;10285845;28;938;-70
2024/03/04 07:05:23;;;;;;;;;;;;;;;18.75;43.41;99049.22;10285131;28;977;-73
2024/03/04 07:10:19;;;;;;;;;;;;;;;18.74;43.40;99053.63;10285157;28;1993;-72
2024/03/04 07:15:15;;;;;;;;;;;;;;;18.72;43.39;99055.50;10285568;28;827;-72
2024/03/04 07:20:10;;;;;;;;;;;;;;;18.72;43.73;99060.78;10284954;28;849;-71
2024/03/04 07:25:06;;;;;;;;;;;;;;;18.70;43.51;99065.28;10284820;28;850;-72
2024/03/04 07:30:03;;;;;;;;;;;;;;;18.70;43.49;99077.63;10284492;28;1901;-72
2024/03/04 07:34:59;;;;;;;;;;;;;;;18.69;43.32;99081.22;10260691;28;1592;-71
2024/03/04 07:39:55;;;;;;;;;;;;;;;18.67;43.37;99081.31;10203380;28;835;-71
2024/03/04 07:44:51;;;;;;;;;;;;;;;18.67;43.45;99077.81;10203502;28;870;-72
2024/03/04 07:49:46;;;;;;;;;;;;;;;18.67;43.42;99083.94;10203311;28;1894;-71
2024/03/04 07:54:43;;;;;;;;;;;;;;;18.66;43.50;99084.91;10203608;28;803;-71
2024/03/04 07:59:39;;;;;;;;;;;;;;;18.68;43.50;99090.06;10211231;28;946;-72
2024/03/04 08:04:35;;;;;;;;;;;;;;;18.68;43.40;99095.34;10210029;28;1196;-71
2024/03/04 08:09:31;;;;;;;;;;;;;;;18.67;43.55;99099.78;10210917;28;1919;-71
2024/03/04 08:14:27;;;;;;;;;;;;;;;18.68;43.56;99106.78;10209526;28;1149;-71
2024/03/04 08:19:23;;;;;;;;;;;;;;;18.68;43.49;99108.53;10211597;28;811;-71
2024/03/04 08:24:18;;;;;;;;;;;;;;;18.69;43.52;99105.00;10209379;28;956;-73
2024/03/04 08:29:14;;;;;;;;;;;;;;;18.69;43.46;99110.28;10209815;28;1958;-71
2024/03/04 08:34:10;;;;;;;;;;;;;;;18.69;43.52;99120.81;10209681;28;792;-71
2024/03/04 08:39:06;;;;;;;;;;;;;;;18.71;43.56;99126.88;10210430;28;747;-71
2024/03/04 08:44:02;;;;;;;;;;;;;;;18.71;43.60;99126.88;10291251;28;857;-71
2024/03/04 08:48:58;;;;;;;;;;;;;;;18.71;43.44;99129.53;10289689;28;1959;-71
2024/03/04 08:53:54;;;;;;;;;;;;;;;18.71;43.71;99134.78;10290120;28;807;-72
2024/03/04 08:58:50;;;;;;;;;;;;;;;18.71;43.54;99142.72;10289883;28;898;-71
2024/03/04 09:03:45;;;;;;;;;;;;;;;18.72;43.57;99139.97;10289777;28;830;-72
2024/03/04 09:08:41;;;;;;;;;;;;;;;18.71;43.67;99137.44;10288990;28;1985;-72
2024/03/04 09:13:37;;;;;;;;;;;;;;;18.71;43.54;99145.34;10290087;28;864;-75
2024/03/04 09:18:33;;;;;;;;;;;;;;;18.73;43.76;99148.75;10289289;28;889;-72
2024/03/04 09:23:29;;;;;;;;;;;;;;;18.72;43.57;99132.06;10289658;28;811;-75
2024/03/04 09:28:25;;;;;;;;;;;;;;;18.73;43.67;99146.09;10288081;28;1949;-72
2024/03/04 09:33:21;;;;;;;;;;;;;;;18.72;43.63;99145.25;10289208;28;897;-75
2024/03/04 09:38:17;;;;;;;;;;;;;;;18.72;43.64;99141.78;10288987;28;849;-77
2024/03/04 09:43:12;;;;;;;;;;;;;;;18.71;43.56;99145.34;10288221;28;757;-71
2024/03/04 09:48:08;;;;;;;;;;;;;;;18.71;43.63;99145.34;10288114;28;1967;-71
2024/03/04 09:53:06;;;;;;;;;;;;;;;18.72;43.62;99147.03;10288006;28;939;-71
2024/03/04 09:58:02;;;;;;;;;;;;;;;18.71;43.57;99154.13;10287637;28;877;-71
2024/03/04 10:02:58;;;;;;;;;;;;;;;18.71;43.64;99151.47;10287370;28;954;-71
2024/03/04 10:07:54;;;;;;;;;;;;;;;18.71;43.55;99150.63;10287440;28;1918;-71
2024/03/04 10:12:50;;;;;;;;;;;;;;;18.71;43.51;99162.03;10287016;28;883;-71
2024/03/04 10:17:47;;;;;;;;;;;;;;;18.72;43.55;99160.25;10286572;28;976;-71
2024/03/04 10:22:43;;;;;;;;;;;;;;;18.71;43.60;99169.97;10286653;28;908;-71
2024/03/04 10:27:39;;;;;;;;;;;;;;;18.73;43.76;99164.56;10287139;28;1894;-71
2024/03/04 10:32:36;;;;;;;;;;;;;;;18.72;43.55;99176.09;10286267;28;1226;-71
2024/03/04 10:37:32;;;;;;;;;;;;;;;18.72;43.62;99170.81;10286100;28;982;-71
2024/03/04 10:42:28;;;;;;;;;;;;;;;18.72;43.66;99173.44;10286089;28;853;-71
2024/03/04 10:47:23;;;;;;;;;;;;;;;18.72;43.78;99173.44;10286347;28;1894;-71
2024/03/04 10:52:19;;;;;;;;;;;;;;;18.73;43.79;99175.13;10285755;28;976;-71
2024/03/04 10:57:15;;;;;;;;;;;;;;;18.73;43.54;99172.50;10285838;28;788;-72
2024/03/04 11:02:11;;;;;;;;;;;;;;;18.72;43.58;99186.66;10285901;28;875;-71
2024/03/04 11:07:09;;;;;;;;;;;;;;;18.74;43.78;99190.91;10284774;28;1667;-71
2024/03/04 11:12:06;;;;;;;;;;;;;;;18.73;43.76;99186.56;10284897;28;900;-71
2024/03/04 11:17:03;;;;;;;;;;;;;;;18.73;43.70;99190.97;10284830;28;950;-71
2024/03/04 11:21:59;;;;;;;;;;;;;;;18.74;43.82;99196.19;10285564;28;917;-71
2024/03/04 11:26:55;;;;;;;;;;;;;;;18.74;43.77;99195.34;10284612;28;894;-72
2024/03/04 11:31:51;;;;;;;;;;;;;;;18.74;43.70;99203.25;10284111;28;1890;-71
2024/03/04 11:36:47;;;;;;;;;;;;;;;18.74;43.82;99200.63;10284331;28;1170;-73
2024/03/04 11:41:49;;;;;;;;;;;;;;;18.76;43.67;99196.16;10284936;28;850;-75
2024/03/04 11:46:45;;;;;;;;;;;;;;;18.75;43.73;99202.34;10284133;28;862;-74
2024/03/04 11:51:41;;;;;;;;;;;;;;;18.75;43.78;99202.34;10284279;28;1939;-71
2024/03/04 11:56:37;;;;;;;;;;;;;;;18.76;43.94;99204.06;10284088;28;949;-71
2024/03/04 12:01:32;;;;;;;;;;;;;;;18.77;44.06;99206.59;10283941;28;763;-71
2024/03/04 12:06:28;;;;;;;;;;;;;;;18.77;44.72;99209.25;10283607;28;1098;-71
2024/03/04 12:11:24;;;;;;;;;;;;;;;18.78;44.80;99207.44;10283969;28;1910;-71
2024/03/04 12:16:20;;;;;;;;;;;;;;;18.78;44.61;99207.44;10284291;28;815;-71
2024/03/04 12:21:16;;;;;;;;;;;;;;;18.78;44.92;99202.16;10284215;28;857;-72
2024/03/04 12:26:12;;;;;;;;;;;;;;;18.76;44.81;99201.44;10282985;28;925;-72
2024/03/04 12:31:08;;;;;;;;;;;;;;;18.76;44.71;99201.44;10283237;28;1902;-72
2024/03/04 12:36:04;;;;;;;;;;;;;;;18.76;44.95;99204.06;10284161;28;868;-72
2024/03/04 12:41:00;;;;;;;;;;;;;;;18.74;44.64;99206.75;10283377;28;1028;-71
2024/03/04 12:45:56;;;;;;;;;;;;;;;18.74;44.89;99205.91;10291046;28;779;-72
2024/03/04 12:50:52;;;;;;;;;;;;;;;18.74;44.69;99212.03;10291137;28;2004;-72
2024/03/04 12:55:48;;;;;;;;;;;;;;;18.73;44.84;99209.47;10290105;28;779;-72
2024/03/04 13:00:46;;;;;;;;;;;;;;;18.73;44.90;99214.75;10290495;28;791;-72
2024/03/04 13:05:41;;;;;;;;;;;;;;;18.72;44.92;99213.88;10262340;28;1488;-71
2024/03/04 13:10:37;;;;;;;;;;;;;;;18.72;44.85;99218.31;10247763;28;1989;-72
2024/03/04 13:15:33;;;;;;;;;;;;;;;18.72;44.78;99218.31;10247471;28;839;-72
2024/03/04 13:20:29;;;;;;;;;;;;;;;18.71;44.97;99214.00;10248760;28;809;-72
2024/03/04 13:25:25;;;;;;;;;;;;;;;18.72;44.73;99223.59;10248289;28;807;-72
2024/03/04 13:30:21;;;;;;;;;;;;;;;18.72;44.90;99221.81;10248523;28;1902;-71
2024/03/04 13:35:17;;;;;;;;;;;;;;;18.72;44.90;99210.41;10247990;28;905;-72
2024/03/04 13:40:13;;;;;;;;;;;;;;;18.72;45.07;99215.69;10247698;28;811;-72
2024/03/04 13:45:09;;;;;;;;;;;;;;;18.73;45.02;99225.28;10247221;28;838;-71
2024/03/04 13:50:06;;;;;;;;;;;;;;;18.73;44.88;99222.66;10247115;28;1945;-72
2024/03/04 13:55:01;;;;;;;;;;;;;;;18.72;44.91;99216.53;10247268;28;857;-72
2024/03/04 13:59:57;;;;;;;;;;;;;;;18.73;44.96;99222.66;10247262;28;822;-72
2024/03/04 14:04:53;;;;;;;;;;;;;;;18.73;45.15;99226.19;10246989;28;755;-71
2024/03/04 14:09:50;;;;;;;;;;;;;;;18.73;45.13;99217.38;10246133;28;1994;-72
2024/03/04 14:14:46;;;;;;;;;;;;;;;18.73;44.89;99218.25;10246758;28;952;-72
2024/03/04 14:19:42;;;;;;;;;;;;;;;18.73;44.99;99210.34;10246056;28;826;-71
2024/03/04 14:24:38;;;;;;;;;;;;;;;18.73;45.06;99212.09;10245442;28;1000;-72
2024/03/04 14:29:35;;;;;;;;;;;;;;;18.73;45.11;99220.00;10245546;28;1981;-73
2024/03/04 14:34:31;;;;;;;;;;;;;;;18.72;45.06;99213.03;10244913;28;987;-73
2024/03/04 14:39:27;;;;;;;;;;;;;;;18.71;44.99;99219.28;10244341;28;1371;-72
2024/03/04 14:44:22;;;;;;;;;;;;;;;18.70;44.91;99220.19;10244110;28;919;-72
2024/03/04 14:49:18;;;;;;;;;;;;;;;18.67;44.87;99215.94;10244510;28;1956;-72
2024/03/04 14:54:14;;;;;;;;;;;;;;;18.65;44.87;99214.31;10244345;28;803;-72
2024/03/04 14:59:10;;;;;;;;;;;;;;;18.64;44.94;99225.81;10244164;28;981;-71
2024/03/04 15:04:06;;;;;;;;;;;;;;;18.62;45.01;99223.25;10250617;28;1252;-72
2024/03/04 15:09:02;;;;;;;;;;;;;;;18.61;44.89;99222.41;10284387;28;1911;-73
2024/03/04 15:13:58;;;;;;;;;;;;;;;18.61;44.85;99232.97;10285298;28;952;-73
2024/03/04 15:18:54;;;;;;;;;;;;;;;18.59;44.78;99226.91;10282528;28;1030;-71
2024/03/04 15:23:50;;;;;;;;;;;;;;;18.60;44.86;99226.00;10262854;28;854;-72
2024/03/04 15:28:46;;;;;;;;;;;;;;;18.59;44.56;99229.56;10244278;28;1894;-73
2024/03/04 15:33:43;;;;;;;;;;;;;;;18.61;44.77;99232.13;10243955;28;909;-75
2024/03/04 15:38:40;;;;;;;;;;;;;;;18.60;44.90;99233.03;10243843;28;803;-72
2024/03/04 15:43:36;;;;;;;;;;;;;;;18.60;44.91;99230.41;10244347;28;884;-72
2024/03/04 15:48:32;;;;;;;;;;;;;;;18.60;44.85;99236.56;10243618;28;1948;-75
2024/03/04 15:53:27;;;;;;;;;;;;;;;18.61;44.96;99234.75;10243567;28;823;-72
2024/03/04 15:58:23;;;;;;;;;;;;;;;18.60;44.95;99241.84;10237792;28;921;-72
2024/03/04 16:03:19;;;;;;;;;;;;;;;18.60;44.88;99239.19;10244025;28;849;-73
2024/03/04 16:08:15;;;;;;;;;;;;;;;18.62;44.97;99228.53;10242838;28;1910;-72
2024/03/04 16:13:11;;;;;;;;;;;;;;;18.60;44.86;99220.72;10243860;28;909;-73
2024/03/04 16:18:07;;;;;;;;;;;;;;;18.62;44.79;99226.75;10247902;28;767;-74
2024/03/04 16:23:03;;;;;;;;;;;;;;;18.62;44.91;99233.81;10250810;28;898;-73
2024/03/04 16:27:59;;;;;;;;;;;;;;;18.61;44.79;99232.13;10250580;28;1959;-82
2024/03/04 16:32:55;;;;;;;;;;;;;;;18.60;44.93;99235.69;10282953;28;1177;-83
2024/03/04 16:37:50;;;;;;;;;;;;;;;18.60;44.77;99233.91;10290306;28;780;-73
2024/03/04 16:42:46;;;;;;;;;;;;;;;18.60;44.69;99236.56;10290232;28;818;-73
2024/03/04 16:47:42;;;;;;;;;;;;;;;18.59;44.69;99241.91;10290320;28;1894;-74
2024/03/04 16:52:38;;;;;;;;;;;;;;;18.60;44.62;99247.13;10290836;28;796;-77
2024/03/04 16:57:34;;;;;;;;;;;;;;;18.60;44.80;99247.13;10290425;28;866;-73
2024/03/04 17:02:30;;;;;;;;;;;;;;;18.61;44.71;99251.44;10288869;28;999;-74
2024/03/04 17:07:26;;;;;;;;;;;;;;;18.61;44.70;99248.81;10289271;28;1905;-73
2024/03/04 17:12:23;;;;;;;;;;;;;;;18.62;44.83;99252.28;10289065;28;766;-74
2024/03/04 17:17:19;;;;;;;;;;;;;;;18.62;44.78;99257.56;10288690;28;1304;-72
2024/03/04 17:22:14;;;;;;;;;;;;;;;18.62;44.96;99266.34;10288102;28;897;-81
2024/03/04 17:27:10;;;;;;;;;;;;;;;18.62;44.98;99265.50;10288468;28;878;-74
2024/03/04 17:32:06;;;;;;;;;;;;;;;18.63;45.02;99261.94;10288253;28;1898;-72
2024/03/04 17:37:03;;;;;;;;;;;;;;;18.62;44.98;99268.97;10288812;28;791;-72
2024/03/04 17:41:59;;;;;;;;;;;;;;;18.64;44.93;99278.63;10288406;28;782;-72
2024/03/04 17:46:55;;;;;;;;;;;;;;;18.64;44.94;99282.09;10287804;28;934;-77
2024/03/04 17:51:51;;;;;;;;;;;;;;;18.64;44.93;99284.75;10288336;28;1910;-72
2024/03/04 17:56:46;;;;;;;;;;;;;;;18.65;44.93;99285.59;10288445;28;791;-72
2024/03/04 18:01:43;;;;;;;;;;;;;;;18.65;44.84;99294.34;10288299;28;775;-72
2024/03/04 18:06:39;;;;;;;;;;;;;;;18.65;44.96;99294.34;10287596;28;1330;-71
2024/03/04 18:11:35;;;;;;;;;;;;;;;18.64;44.87;99295.31;10286895;28;1918;-72
2024/03/04 18:16:32;;;;;;;;;;;;;;;18.65;45.02;99301.44;10286786;28;941;-72
2024/03/04 18:21:28;;;;;;;;;;;;;;;18.66;44.93;99300.50;10287485;28;1563;-80
2024/03/04 18:26:24;;;;;;;;;;;;;;;18.64;45.00;99295.31;10287030;28;993;-72
2024/03/04 18:31:20;;;;;;;;;;;;;;;18.65;44.96;99301.44;10286934;28;1991;-72
2024/03/04 18:36:16;;;;;;;;;;;;;;;18.65;44.86;99296.16;10285044;28;826;-75
2024/03/04 18:41:11;;;;;;;;;;;;;;;18.65;44.96;99296.16;10285141;28;902;-71
2024/03/04 18:46:07;;;;;;;;;;;;;;;18.65;44.90;99298.78;10285578;28;1246;-71
2024/03/04 18:51:03;;;;;;;;;;;;;;;18.65;44.81;99290.88;10286000;28;1922;-71
2024/03/04 18:55:59;;;;;;;;;;;;;;;18.65;44.82;99301.44;10285652;28;795;-71
2024/03/04 19:00:55;;;;;;;;;;;;;;;18.65;44.77;99307.56;10286034;28;834;-71
2024/03/04 19:05:52;;;;;;;;;;;;;;;18.65;44.81;99309.34;10285302;28;916;-71
2024/03/04 19:10:48;;;;;;;;;;;;;;;18.65;44.72;99311.97;10285537;28;1996;-71
2024/03/04 19:15:46;;;;;;;;;;;;;;;18.64;44.93;99316.41;10285583;28;909;-71
2024/03/04 19:20:42;;;;;;;;;;;;;;;18.65;44.83;99323.38;10284885;28;799;-71
2024/03/04 19:25:38;;;;;;;;;;;;;;;18.66;44.89;99313.72;10285517;28;878;-71
2024/03/04 19:30:34;;;;;;;;;;;;;;;18.65;44.86;99312.84;10285367;28;1889;-71
2024/03/04 19:35:30;;;;;;;;;;;;;;;18.65;44.69;99322.53;10284413;28;817;-71
2024/03/04 19:40:26;;;;;;;;;;;;;;;18.65;44.76;99312.84;10284488;28;866;-71
2024/03/04 19:45:23;;;;;;;;;;;;;;;18.65;44.76;99311.97;10284919;28;841;-71
2024/03/04 19:50:20;;;;;;;;;;;;;;;18.64;44.87;99321.69;10286155;28;1945;-71
2024/03/04 19:55:16;;;;;;;;;;;;;;;18.66;44.96;99319.00;10293127;28;1563;-71
2024/03/04 20:00:13;;;;;;;;;;;;;;;18.65;44.63;99307.56;10292368;28;776;-71
2024/03/04 20:05:09;;;;;;;;;;;;;;;18.64;44.68;99313.78;10292743;28;1001;-71
2024/03/04 20:10:06;;;;;;;;;;;;;;;18.66;44.59;99325.13;10291267;28;1910;-71
2024/03/04 20:15:02;;;;;;;;;;;;;;;18.65;44.67;99328.66;10292360;28;908;-71
2024/03/04 20:19:58;;;;;;;;;;;;;;;18.65;44.79;99318.09;10291543;28;786;-71
2024/03/04 20:24:54;;;;;;;;;;;;;;;18.64;44.81;99326.97;10291001;28;972;-72
2024/03/04 20:29:50;;;;;;;;;;;;;;;18.64;44.80;99316.41;10291110;28;1902;-72
2024/03/04 20:34:46;;;;;;;;;;;;;;;18.63;44.74;99320.00;10291250;28;797;-76
2024/03/04 20:39:42;;;;;;;;;;;;;;;18.64;44.63;99323.50;10290842;28;929;-72
2024/03/04 20:44:38;;;;;;;;;;;;;;;18.62;44.64;99324.41;10290505;28;990;-71
2024/03/04 20:49:34;;;;;;;;;;;;;;;18.62;44.88;99320.91;10289565;28;1890;-72
2024/03/04 20:54:30;;;;;;;;;;;;;;;18.60;44.77;99328.94;10290086;28;865;-71
2024/03/04 20:59:26;;;;;;;;;;;;;;;18.61;44.69;99332.44;10289767;28;910;-78
2024/03/04 21:04:22;;;;;;;;;;;;;;;18.59;44.71;99332.50;10289406;28;994;-73
2024/03/04 21:09:18;;;;;;;;;;;;;;;18.58;44.90;99333.44;10289732;28;1977;-73
2024/03/04 21:14:14;;;;;;;;;;;;;;;18.58;44.96;99333.44;10289334;28;862;-75
2024/03/04 21:19:10;;;;;;;;;;;;;;;18.57;44.76;99337.00;10289272;28;802;-76
2024/03/04 21:24:06;;;;;;;;;;;;;;;18.58;44.76;99345.78;10289278;28;846;-80
2024/03/04 21:29:02;;;;;;;;;;;;;;;18.56;44.88;99337.09;10288297;28;1906;-73
2024/03/04 21:33:58;;;;;;;;;;;;;;;18.55;44.89;99338.88;10288720;28;901;-72
2024/03/04 21:38:54;;;;;;;;;;;;;;;18.53;44.75;99338.09;10289001;28;934;-72
2024/03/04 21:43:51;;;;;;;;;;;;;;;18.53;44.86;99335.47;10288426;28;798;-72
2024/03/04 21:48:47;;;;;;;;;;;;;;;18.53;44.84;99342.53;10288754;28;1913;-72
2024/03/04 21:53:43;;;;;;;;;;;;;;;18.52;44.58;99346.09;10288714;28;838;-72
2024/03/04 21:58:39;;;;;;;;;;;;;;;18.52;44.81;99338.19;10288409;28;866;-72
2024/03/04 22:03:35;;;;;;;;;;;;;;;18.49;44.89;99331.28;10287763;28;806;-72
2024/03/04 22:08:30;;;;;;;;;;;;;;;18.48;44.76;99334.00;10287387;28;1985;-73
2024/03/04 22:13:26;;;;;;;;;;;;;;;18.47;44.65;99334.94;10287896;28;874;-73
2024/03/04 22:18:22;;;;;;;;;;;;;;;18.45;44.84;99326.25;10287077;28;806;-73
2024/03/04 22:23:18;;;;;;;;;;;;;;;18.42;44.72;99315.84;10286523;28;865;-73
2024/03/04 22:28:16;;;;;;;;;;;;;;;18.40;44.88;99313.31;10286580;28;1901;-72
2024/03/04 22:33:12;;;;;;;;;;;;;;;18.40;44.74;99319.44;10286435;28;882;-73
2024/03/04 22:38:08;;;;;;;;;;;;;;;18.38;45.03;99320.44;10286233;28;942;-73
2024/03/04 22:43:04;;;;;;;;;;;;;;;18.38;44.71;99315.16;10286083;28;875;-72
2024/03/04 22:48:00;;;;;;;;;;;;;;;18.36;44.80;99319.66;10285253;28;1961;-72
2024/03/04 22:52:56;;;;;;;;;;;;;;;18.35;44.88;99315.31;10285727;28;895;-73
2024/03/04 22:57:52;;;;;;;;;;;;;;;18.32;45.00;99323.41;10286393;28;834;-73
2024/03/04 23:02:49;;;;;;;;;;;;;;;18.32;44.89;99326.03;10285928;28;939;-73
2024/03/04 23:07:46;;;;;;;;;;;;;;;18.31;44.78;99321.69;10284718;28;1988;-73
2024/03/04 23:12:42;;;;;;;;;;;;;;;18.29;44.91;99332.34;10285779;28;814;-73
2024/03/04 23:17:39;;;;;;;;;;;;;;;18.28;44.96;99338.53;10285027;28;846;-73
2024/03/04 23:22:35;;;;;;;;;;;;;;;18.27;44.81;99342.09;10284893;28;972;-72
2024/03/04 23:27:30;;;;;;;;;;;;;;;18.25;44.91;99343.13;10284339;28;856;-72
2024/03/04 23:32:26;;;;;;;;;;;;;;;18.24;44.96;99336.16;10285171;28;1886;-73
2024/03/04 23:37:22;;;;;;;;;;;;;;;18.23;44.79;99344.97;10284912;28;897;-73
2024/03/04 23:42:18;;;;;;;;;;;;;;;18.23;45.04;99342.34;10285053;28;857;-74
2024/03/04 23:47:14;;;;;;;;;;;;;;;18.23;44.99;99344.97;10284516;28;770;-74
2024/03/04 23:52:10;;;;;;;;;;;;;;;18.21;44.99;99349.47;10284831;28;1893;-74
2024/03/04 23:57:06;;;;;;;;;;;;;;;18.18;44.96;99346.09;10284191;28;818;-74
